sensor_id;sensor_type;location;lat;lon;timestamp;pressure;altitude;pressure_sealevel;temperature;humidity
65557;BME280;52200;53.490;14.376;2022-11-20T00:00:42;100941.69;;;0.87;94.82
65557;BME280;52200;53.490;14.376;2022-11-20T00:03:08;100934.66;;;0.64;96.03
65557;BME280;52200;53.490;14.376;2022-11-20T00:05:33;100932.19;;;0.20;97.55
65557;BME280;52200;53.490;14.376;2022-11-20T00:07:59;100935.97;;;0.93;97.01
65557;BME280;52200;53.490;14.376;2022-11-20T00:10:24;100941.81;;;0.93;94.64
65557;BME280;52200;53.490;14.376;2022-11-20T00:12:50;100929.91;;;0.80;96.29
65557;BME280;52200;53.490;14.376;2022-11-20T00:15:15;100940.22;;;0.50;95.97
65557;BME280;52200;53.490;14.376;2022-11-20T00:17:41;100939.13;;;0.83;96.42
65557;BME280;52200;53.490;14.376;2022-11-20T00:20:06;100936.84;;;0.96;96.09
65557;BME280;52200;53.490;14.376;2022-11-20T00:22:32;100933.31;;;0.85;95.47
65557;BME280;52200;53.490;14.376;2022-11-20T00:24:57;100936.19;;;1.08;95.65
65557;BME280;52200;53.490;14.376;2022-11-20T00:27:23;100929.72;;;1.21;95.11
65557;BME280;52200;53.490;14.376;2022-11-20T00:29:48;100934.69;;;1.20;94.71
65557;BME280;52200;53.490;14.376;2022-11-20T00:32:14;100935.50;;;0.65;95.37
65557;BME280;52200;53.490;14.376;2022-11-20T00:34:39;100938.06;;;0.70;96.02
65557;BME280;52200;53.490;14.376;2022-11-20T00:37:05;100938.06;;;0.70;95.57
65557;BME280;52200;53.490;14.376;2022-11-20T00:39:30;100931.94;;;0.52;97.02
65557;BME280;52200;53.490;14.376;2022-11-20T00:41:56;100937.53;;;0.88;96.56
65557;BME280;52200;53.490;14.376;2022-11-20T00:44:21;100937.03;;;1.09;95.77
65557;BME280;52200;53.490;14.376;2022-11-20T00:46:47;100937.91;;;1.11;94.53
65557;BME280;52200;53.490;14.376;2022-11-20T00:49:12;100946.38;;;0.69;96.30
65557;BME280;52200;53.490;14.376;2022-11-20T00:51:38;100941.50;;;0.75;96.39
65557;BME280;52200;53.490;14.376;2022-11-20T00:54:03;100952.50;;;0.37;97.59
65557;BME280;52200;53.490;14.376;2022-11-20T00:56:28;100943.06;;;0.70;97.50
65557;BME280;52200;53.490;14.376;2022-11-20T00:58:54;100946.22;;;0.59;96.95
65557;BME280;52200;53.490;14.376;2022-11-20T01:01:22;100951.31;;;0.66;97.50
65557;BME280;52200;53.490;14.376;2022-11-20T01:03:50;100944.47;;;1.04;96.97
65557;BME280;52200;53.490;14.376;2022-11-20T01:06:19;100939.69;;;1.17;95.37
65557;BME280;52200;53.490;14.376;2022-11-20T01:08:46;100939.63;;;1.15;95.25
65557;BME280;52200;53.490;14.376;2022-11-20T01:11:16;100940.31;;;1.05;93.91
65557;BME280;52200;53.490;14.376;2022-11-20T01:13:42;100938.66;;;1.05;94.45
65557;BME280;52200;53.490;14.376;2022-11-20T01:16:17;100934.41;;;1.01;95.23
65557;BME280;52200;53.490;14.376;2022-11-20T01:18:45;100935.19;;;0.95;95.11
65557;BME280;52200;53.490;14.376;2022-11-20T01:21:13;100935.91;;;0.91;96.20
65557;BME280;52200;53.490;14.376;2022-11-20T01:23:40;100928.16;;;0.74;96.45
65557;BME280;52200;53.490;14.376;2022-11-20T01:26:10;100928.41;;;0.91;96.51
65557;BME280;52200;53.490;14.376;2022-11-20T01:28:37;100930.81;;;0.84;96.40
65557;BME280;52200;53.490;14.376;2022-11-20T01:31:17;100933.06;;;0.70;96.80
65557;BME280;52200;53.490;14.376;2022-11-20T01:33:44;100921.84;;;0.46;96.90
65557;BME280;52200;53.490;14.376;2022-11-20T01:36:11;100923.31;;;0.85;96.90
65557;BME280;52200;53.490;14.376;2022-11-20T01:38:37;100927.19;;;1.18;95.93
65557;BME280;52200;53.490;14.376;2022-11-20T01:41:03;100924.66;;;1.17;94.37
65557;BME280;52200;53.490;14.376;2022-11-20T01:43:29;100925.38;;;1.08;95.34
65557;BME280;52200;53.490;14.376;2022-11-20T01:46:05;100928.69;;;1.08;95.73
65557;BME280;52200;53.490;14.376;2022-11-20T01:48:38;100925.31;;;1.05;96.49
65557;BME280;52200;53.490;14.376;2022-11-20T01:51:20;100924.00;;;0.76;95.23
65557;BME280;52200;53.490;14.376;2022-11-20T01:53:48;100925.47;;;1.14;95.67
65557;BME280;52200;53.490;14.376;2022-11-20T01:56:15;100921.25;;;1.11;95.67
65557;BME280;52200;53.490;14.376;2022-11-20T01:58:46;100913.59;;;1.02;95.38
65557;BME280;52200;53.490;14.376;2022-11-20T02:01:13;100912.75;;;1.02;95.31
65557;BME280;52200;53.490;14.376;2022-11-20T02:03:40;100919.19;;;0.87;95.39
65557;BME280;52200;53.490;14.376;2022-11-20T02:06:10;100918.47;;;0.93;96.21
65557;BME280;52200;53.490;14.376;2022-11-20T02:08:38;100912.78;;;1.03;95.59
65557;BME280;52200;53.490;14.376;2022-11-20T02:11:03;100916.34;;;1.19;94.89
65557;BME280;52200;53.490;14.376;2022-11-20T02:13:29;100905.25;;;1.02;94.34
65557;BME280;52200;53.490;14.376;2022-11-20T02:16:15;100905.47;;;1.17;94.79
65557;BME280;52200;53.490;14.376;2022-11-20T02:18:43;100911.81;;;0.96;94.83
65557;BME280;52200;53.490;14.376;2022-11-20T02:24:12;100910.53;;;1.20;94.63
65557;BME280;52200;53.490;14.376;2022-11-20T02:26:59;100913.31;;;1.40;94.14
65557;BME280;52200;53.490;14.376;2022-11-20T02:29:32;100911.72;;;1.45;93.34
65557;BME280;52200;53.490;14.376;2022-11-20T02:32:02;100914.13;;;1.38;93.81
65557;BME280;52200;53.490;14.376;2022-11-20T02:34:27;100910.53;;;1.20;93.06
65557;BME280;52200;53.490;14.376;2022-11-20T02:36:54;100908.13;;;1.26;93.75
65557;BME280;52200;53.490;14.376;2022-11-20T02:39:23;100902.38;;;0.78;93.97
65557;BME280;52200;53.490;14.376;2022-11-20T02:41:55;100904.88;;;0.77;94.84
65557;BME280;52200;53.490;14.376;2022-11-20T02:44:21;100905.19;;;0.99;94.77
65557;BME280;52200;53.490;14.376;2022-11-20T02:46:46;100899.41;;;1.03;94.35
65557;BME280;52200;53.490;14.376;2022-11-20T02:49:12;100899.91;;;0.80;94.67
65557;BME280;52200;53.490;14.376;2022-11-20T02:51:37;100905.78;;;0.84;95.46
65557;BME280;52200;53.490;14.376;2022-11-20T02:54:03;100903.28;;;0.82;94.86
65557;BME280;52200;53.490;14.376;2022-11-20T02:56:29;100907.16;;;0.64;95.74
65557;BME280;52200;53.490;14.376;2022-11-20T02:58:54;100905.38;;;0.59;97.78
65557;BME280;52200;53.490;14.376;2022-11-20T03:01:20;100906.09;;;1.04;96.31
65557;BME280;52200;53.490;14.376;2022-11-20T03:03:46;100910.28;;;1.03;95.05
65557;BME280;52200;53.490;14.376;2022-11-20T03:06:14;100911.09;;;1.04;95.47
65557;BME280;52200;53.490;14.376;2022-11-20T03:08:39;100904.56;;;1.12;94.46
65557;BME280;52200;53.490;14.376;2022-11-20T03:11:06;100915.34;;;1.08;94.96
65557;BME280;52200;53.490;14.376;2022-11-20T03:13:32;100896.88;;;1.00;94.92
65557;BME280;52200;53.490;14.376;2022-11-20T03:15:58;100899.81;;;0.75;95.34
65557;BME280;52200;53.490;14.376;2022-11-20T03:18:23;100900.13;;;0.94;95.35
65557;BME280;52200;53.490;14.376;2022-11-20T03:20:49;100898.50;;;0.96;95.35
65557;BME280;52200;53.490;14.376;2022-11-20T03:23:14;100893.66;;;1.07;94.86
65557;BME280;52200;53.490;14.376;2022-11-20T03:25:40;100890.88;;;0.88;95.40
65557;BME280;52200;53.490;14.376;2022-11-20T03:28:05;100883.31;;;0.85;95.29
65557;BME280;52200;53.490;14.376;2022-11-20T03:30:31;100880.91;;;0.91;96.20
65557;BME280;52200;53.490;14.376;2022-11-20T03:32:56;100885.44;;;1.14;94.91
65557;BME280;52200;53.490;14.376;2022-11-20T03:35:22;100892.00;;;1.09;95.01
65557;BME280;52200;53.490;14.376;2022-11-20T03:37:47;100883.56;;;1.01;94.73
65557;BME280;52200;53.490;14.376;2022-11-20T03:40:13;100883.47;;;0.94;95.07
65557;BME280;52200;53.490;14.376;2022-11-20T03:42:39;100887.59;;;0.92;95.99
65557;BME280;52200;53.490;14.376;2022-11-20T03:45:10;100880.25;;;1.02;95.15
65557;BME280;52200;53.490;14.376;2022-11-20T03:47:36;100877.69;;;0.99;95.34
65557;BME280;52200;53.490;14.376;2022-11-20T03:50:02;100882.09;;;0.61;96.11
65557;BME280;52200;53.490;14.376;2022-11-20T03:52:28;100887.00;;;1.09;95.71
65557;BME280;52200;53.490;14.376;2022-11-20T03:54:53;100879.81;;;1.29;95.05
65557;BME280;52200;53.490;14.376;2022-11-20T03:57:19;100885.56;;;1.25;93.93
65557;BME280;52200;53.490;14.376;2022-11-20T03:59:44;100891.44;;;1.27;94.17
65557;BME280;52200;53.490;14.376;2022-11-20T04:02:10;100882.94;;;1.14;94.34
65557;BME280;52200;53.490;14.376;2022-11-20T04:04:35;100889.56;;;1.12;94.17
65557;BME280;52200;53.490;14.376;2022-11-20T04:07:01;100889.66;;;1.18;94.14
65557;BME280;52200;53.490;14.376;2022-11-20T04:09:27;100884.13;;;1.41;93.43
65557;BME280;52200;53.490;14.376;2022-11-20T04:11:52;100875.44;;;1.14;93.31
65557;BME280;52200;53.490;14.376;2022-11-20T04:14:18;100873.09;;;1.28;94.14
65557;BME280;52200;53.490;14.376;2022-11-20T04:16:44;100868.47;;;0.94;93.71
65557;BME280;52200;53.490;14.376;2022-11-20T04:19:14;100866.56;;;0.79;94.89
65557;BME280;52200;53.490;14.376;2022-11-20T04:21:41;100861.78;;;0.95;95.29
65557;BME280;52200;53.490;14.376;2022-11-20T04:24:07;100865.31;;;1.08;95.59
65557;BME280;52200;53.490;14.376;2022-11-20T04:26:33;100861.88;;;1.01;95.18
65557;BME280;52200;53.490;14.376;2022-11-20T04:28:59;100855.25;;;1.03;95.01
65557;BME280;52200;53.490;14.376;2022-11-20T04:31:29;100858.75;;;1.15;94.54
65557;BME280;52200;53.490;14.376;2022-11-20T04:33:55;100852.81;;;1.08;95.25
65557;BME280;52200;53.490;14.376;2022-11-20T04:36:25;100861.22;;;1.13;95.20
65557;BME280;52200;53.490;14.376;2022-11-20T04:38:53;100857.84;;;1.11;94.17
65557;BME280;52200;53.490;14.376;2022-11-20T04:41:20;100858.38;;;0.88;94.87
65557;BME280;52200;53.490;14.376;2022-11-20T04:43:49;100858.16;;;0.74;96.03
65557;BME280;52200;53.490;14.376;2022-11-20T04:46:20;100862.47;;;0.83;96.04
65557;BME280;52200;53.490;14.376;2022-11-20T04:48:46;100852.38;;;0.78;95.81
65557;BME280;52200;53.490;14.376;2022-11-20T04:51:12;100857.72;;;1.02;95.47
65557;BME280;52200;53.490;14.376;2022-11-20T04:53:38;100858.06;;;0.70;96.11
65557;BME280;52200;53.490;14.376;2022-11-20T04:56:06;100863.28;;;0.82;96.28
65557;BME280;52200;53.490;14.376;2022-11-20T04:58:33;100850.94;;;0.94;95.64
65557;BME280;52200;53.490;14.376;2022-11-20T05:01:07;100854.00;;;0.76;96.21
65557;BME280;52200;53.490;14.376;2022-11-20T05:03:33;100847.41;;;0.82;95.79
65557;BME280;52200;53.490;14.376;2022-11-20T05:06:03;100854.31;;;0.44;97.35
65557;BME280;52200;53.490;14.376;2022-11-20T05:08:30;100853.81;;;0.66;97.97
65557;BME280;52200;53.490;14.376;2022-11-20T05:11:10;100856.28;;;0.62;97.94
65557;BME280;52200;53.490;14.376;2022-11-20T05:13:37;100858.78;;;0.61;97.50
65557;BME280;52200;53.490;14.376;2022-11-20T05:16:13;100850.59;;;0.71;97.41
65557;BME280;52200;53.490;14.376;2022-11-20T05:18:40;100853.63;;;1.07;96.18
65557;BME280;52200;53.490;14.376;2022-11-20T05:21:06;100853.72;;;1.13;95.63
65557;BME280;52200;53.490;14.376;2022-11-20T05:23:33;100852.97;;;0.63;96.98
65557;BME280;52200;53.490;14.376;2022-11-20T05:25:59;100850.00;;;0.88;96.30
65557;BME280;52200;53.490;14.376;2022-11-20T05:28:26;100851.50;;;0.76;97.32
65557;BME280;52200;53.490;14.376;2022-11-20T05:30:51;100848.09;;;0.73;97.53
65557;BME280;52200;53.490;14.376;2022-11-20T05:33:17;100852.31;;;0.75;97.29
65557;BME280;52200;53.490;14.376;2022-11-20T05:35:43;100844.94;;;0.83;96.40
65557;BME280;52200;53.490;14.376;2022-11-20T05:38:09;100843.66;;;1.10;95.42
65557;BME280;52200;53.490;14.376;2022-11-20T05:40:35;100846.13;;;1.07;95.43
65557;BME280;52200;53.490;14.376;2022-11-20T05:43:01;100847.91;;;1.16;95.12
65557;BME280;52200;53.490;14.376;2022-11-20T05:45:27;100836.56;;;0.81;95.34
65557;BME280;52200;53.490;14.376;2022-11-20T05:47:53;100848.47;;;0.98;95.69
65557;BME280;52200;53.490;14.376;2022-11-20T05:50:18;100841.50;;;0.78;96.03
65557;BME280;52200;53.490;14.376;2022-11-20T05:52:44;100833.25;;;0.82;95.48
65557;BME280;52200;53.490;14.376;2022-11-20T05:55:09;100827.47;;;0.86;95.86
65557;BME280;52200;53.490;14.376;2022-11-20T05:57:35;100831.13;;;1.07;94.95
65557;BME280;52200;53.490;14.376;2022-11-20T06:00:00;100835.06;;;0.91;95.45
65557;BME280;52200;53.490;14.376;2022-11-20T06:02:26;100824.06;;;0.81;96.18
65557;BME280;52200;53.490;14.376;2022-11-20T06:04:51;100832.38;;;0.78;96.40
65557;BME280;52200;53.490;14.376;2022-11-20T06:07:17;100827.81;;;1.08;95.46
65557;BME280;52200;53.490;14.376;2022-11-20T06:09:42;100826.50;;;0.78;96.38
65557;BME280;52200;53.490;14.376;2022-11-20T06:12:08;100827.28;;;0.72;97.05
65557;BME280;52200;53.490;14.376;2022-11-20T06:14:33;100826.59;;;0.84;97.13
65557;BME280;52200;53.490;14.376;2022-11-20T06:16:59;100835.16;;;0.99;96.27
65557;BME280;52200;53.490;14.376;2022-11-20T06:19:25;100831.03;;;0.99;96.73
65557;BME280;52200;53.490;14.376;2022-11-20T06:21:50;100831.66;;;0.87;96.46
65557;BME280;52200;53.490;14.376;2022-11-20T06:24:16;100823.78;;;0.62;97.04
65557;BME280;52200;53.490;14.376;2022-11-20T06:26:42;100820.78;;;0.84;96.63
65557;BME280;52200;53.490;14.376;2022-11-20T06:29:08;100827.56;;;0.92;96.64
65557;BME280;52200;53.490;14.376;2022-11-20T06:31:33;100825.88;;;0.91;96.16
65557;BME280;52200;53.490;14.376;2022-11-20T06:34:03;100826.56;;;0.81;96.89
65557;BME280;52200;53.490;14.376;2022-11-20T06:36:28;100828.63;;;1.07;95.70
65557;BME280;52200;53.490;14.376;2022-11-20T06:38:54;100826.59;;;0.84;96.18
65557;BME280;52200;53.490;14.376;2022-11-20T06:41:21;100827.41;;;0.82;97.21
65557;BME280;52200;53.490;14.376;2022-11-20T06:43:47;100830.25;;;1.05;96.07
65557;BME280;52200;53.490;14.376;2022-11-20T06:46:13;100827.66;;;0.99;95.83
65557;BME280;52200;53.490;14.376;2022-11-20T06:48:40;100819.34;;;1.00;96.08
65557;BME280;52200;53.490;14.376;2022-11-20T06:51:07;100821.13;;;1.08;95.93
65557;BME280;52200;53.490;14.376;2022-11-20T06:53:33;100825.69;;;0.77;96.53
65557;BME280;52200;53.490;14.376;2022-11-20T06:55:59;100819.75;;;0.71;97.25
65557;BME280;52200;53.490;14.376;2022-11-20T06:58:27;100819.78;;;0.74;96.56
65557;BME280;52200;53.490;14.376;2022-11-20T07:00:53;100819.69;;;0.66;97.88
65557;BME280;52200;53.490;14.376;2022-11-20T07:03:18;100820.66;;;0.76;97.08
65557;BME280;52200;53.490;14.376;2022-11-20T07:05:44;100816.47;;;0.75;97.59
65557;BME280;52200;53.490;14.376;2022-11-20T07:08:11;100809.94;;;0.83;97.79
65557;BME280;52200;53.490;14.376;2022-11-20T07:10:37;100816.03;;;1.01;97.60
65557;BME280;52200;53.490;14.376;2022-11-20T07:13:03;100813.69;;;1.13;95.60
65557;BME280;52200;53.490;14.376;2022-11-20T07:15:28;100812.00;;;1.12;95.25
65557;BME280;52200;53.490;14.376;2022-11-20T07:17:54;100815.31;;;1.11;96.20
65557;BME280;52200;53.490;14.376;2022-11-20T07:20:19;100806.50;;;0.78;96.77
65557;BME280;52200;53.490;14.376;2022-11-20T07:22:45;100812.00;;;1.12;95.61
65557;BME280;52200;53.490;14.376;2022-11-20T07:25:10;100808.78;;;1.22;95.84
65557;BME280;52200;53.490;14.376;2022-11-20T07:27:36;100808.06;;;1.29;95.61
65557;BME280;52200;53.490;14.376;2022-11-20T07:30:03;100801.44;;;1.33;95.52
65557;BME280;52200;53.490;14.376;2022-11-20T07:32:29;100809.06;;;1.44;94.20
65557;BME280;52200;53.490;14.376;2022-11-20T07:34:54;100807.44;;;1.46;94.07
65557;BME280;52200;53.490;14.376;2022-11-20T07:37:20;100806.19;;;1.15;94.13
65557;BME280;52200;53.490;14.376;2022-11-20T07:39:45;100806.63;;;1.49;93.66
65557;BME280;52200;53.490;14.376;2022-11-20T07:42:11;100799.97;;;1.51;93.29
65557;BME280;52200;53.490;14.376;2022-11-20T07:44:38;100799.81;;;1.37;93.20
65557;BME280;52200;53.490;14.376;2022-11-20T07:47:04;100806.66;;;1.53;93.73
65557;BME280;52200;53.490;14.376;2022-11-20T07:49:29;100798.31;;;1.51;92.94
65557;BME280;52200;53.490;14.376;2022-11-20T07:51:55;100807.53;;;1.55;92.73
65557;BME280;52200;53.490;14.376;2022-11-20T07:54:21;100808.44;;;1.62;92.60
65557;BME280;52200;53.490;14.376;2022-11-20T07:56:48;100811.69;;;1.53;92.15
65557;BME280;52200;53.490;14.376;2022-11-20T07:59:14;100810.97;;;1.64;92.71
65557;BME280;52200;53.490;14.376;2022-11-20T08:01:40;100802.72;;;1.71;92.43
65557;BME280;52200;53.490;14.376;2022-11-20T08:04:06;100805.28;;;1.77;92.70
65557;BME280;52200;53.490;14.376;2022-11-20T08:06:32;100813.38;;;1.56;92.65
65557;BME280;52200;53.490;14.376;2022-11-20T08:08:57;100802.25;;;1.31;92.59
65557;BME280;52200;53.490;14.376;2022-11-20T08:11:23;100801.63;;;1.49;93.63
65557;BME280;52200;53.490;14.376;2022-11-20T08:14:07;100805.09;;;1.58;93.33
65557;BME280;52200;53.490;14.376;2022-11-20T08:16:39;100805.44;;;1.91;92.17
65557;BME280;52200;53.490;14.376;2022-11-20T08:19:05;100812.88;;;1.86;92.43
65557;BME280;52200;53.490;14.376;2022-11-20T08:21:31;100806.13;;;1.77;91.87
65557;BME280;52200;53.490;14.376;2022-11-20T08:23:57;100804.63;;;1.93;90.98
65557;BME280;52200;53.490;14.376;2022-11-20T08:26:23;100798.09;;;2.08;90.83
65557;BME280;52200;53.490;14.376;2022-11-20T08:28:49;100803.16;;;2.16;90.20
65557;BME280;52200;53.490;14.376;2022-11-20T08:31:17;100802.47;;;2.34;89.89
65557;BME280;52200;53.490;14.376;2022-11-20T08:33:43;100794.84;;;2.21;90.27
65557;BME280;52200;53.490;14.376;2022-11-20T08:36:08;100796.63;;;2.33;88.65
65557;BME280;52200;53.490;14.376;2022-11-20T08:38:34;100788.28;;;2.33;88.73
65557;BME280;52200;53.490;14.376;2022-11-20T08:41:01;100785.69;;;2.23;89.56
65557;BME280;52200;53.490;14.376;2022-11-20T08:43:45;100794.66;;;2.03;89.50
65557;BME280;52200;53.490;14.376;2022-11-20T08:46:11;100790.34;;;1.83;90.75
65557;BME280;52200;53.490;14.376;2022-11-20T08:48:36;100787.88;;;1.89;90.84
65557;BME280;52200;53.490;14.376;2022-11-20T08:51:02;100787.75;;;1.77;90.78
65557;BME280;52200;53.490;14.376;2022-11-20T08:53:27;100786.28;;;1.99;91.19
65557;BME280;52200;53.490;14.376;2022-11-20T08:55:53;100776.44;;;2.16;90.20
65557;BME280;52200;53.490;14.376;2022-11-20T08:58:18;100782.19;;;2.06;90.27
65557;BME280;52200;53.490;14.376;2022-11-20T09:00:44;100769.78;;;2.18;89.61
65557;BME280;52200;53.490;14.376;2022-11-20T09:03:09;100772.38;;;2.29;88.99
65557;BME280;52200;53.490;14.376;2022-11-20T09:05:35;100775.44;;;1.99;89.37
65557;BME280;52200;53.490;14.376;2022-11-20T09:08:00;100777.25;;;2.14;89.14
65557;BME280;52200;53.490;14.376;2022-11-20T09:10:27;100779.63;;;2.03;89.83
65557;BME280;52200;53.490;14.376;2022-11-20T09:12:53;100781.25;;;1.96;90.43
65557;BME280;52200;53.490;14.376;2022-11-20T09:15:20;100775.69;;;2.30;88.75
65557;BME280;52200;53.490;14.376;2022-11-20T09:17:59;100780.81;;;2.39;88.81
65557;BME280;52200;53.490;14.376;2022-11-20T09:20:26;100784.00;;;2.21;88.82
65557;BME280;52200;53.490;14.376;2022-11-20T09:22:53;100775.03;;;2.49;88.94
65557;BME280;52200;53.490;14.376;2022-11-20T09:25:19;100780.22;;;2.74;87.96
65557;BME280;52200;53.490;14.376;2022-11-20T09:27:45;100775.56;;;2.13;88.96
65557;BME280;52200;53.490;14.376;2022-11-20T09:30:15;100781.78;;;2.58;87.56
65557;BME280;52200;53.490;14.376;2022-11-20T09:32:41;100779.31;;;2.66;87.05
65557;BME280;52200;53.490;14.376;2022-11-20T09:35:08;100772.38;;;2.31;87.95
65557;BME280;52200;53.490;14.376;2022-11-20T09:37:34;100774.00;;;2.25;88.55
65557;BME280;52200;53.490;14.376;2022-11-20T09:39:59;100773.19;;;2.31;88.38
65557;BME280;52200;53.490;14.376;2022-11-20T09:43:20;100778.47;;;2.64;86.98
65557;BME280;52200;53.490;14.376;2022-11-20T09:46:07;100767.75;;;2.86;85.80
65557;BME280;52200;53.490;14.376;2022-11-20T09:49:02;100771.00;;;2.70;86.33
65557;BME280;52200;53.490;14.376;2022-11-20T09:54:13;100767.81;;;2.97;85.34
65557;BME280;52200;53.490;14.376;2022-11-20T09:56:44;100763.59;;;2.93;85.95
65557;BME280;52200;53.490;14.376;2022-11-20T10:02:29;100755.09;;;2.71;86.61
65557;BME280;52200;53.490;14.376;2022-11-20T10:08:20;100760.22;;;2.89;84.49
65557;BME280;52200;53.490;14.376;2022-11-20T10:10:52;100752.53;;;2.60;85.35
65557;BME280;52200;53.490;14.376;2022-11-20T10:14:03;100743.53;;;2.95;85.03
65557;BME280;52200;53.490;14.376;2022-11-20T10:17:03;100750.22;;;2.94;85.33
65557;BME280;52200;53.490;14.376;2022-11-20T10:19:55;100746.03;;;2.92;85.50
65557;BME280;52200;53.490;14.376;2022-11-20T10:25:01;100751.94;;;3.09;84.16
65557;BME280;52200;53.490;14.376;2022-11-20T10:27:42;100743.34;;;2.59;85.12
65557;BME280;52200;53.490;14.376;2022-11-20T10:30:14;100738.38;;;2.74;85.88
65557;BME280;52200;53.490;14.376;2022-11-20T10:32:47;100745.91;;;2.70;84.65
65557;BME280;52200;53.490;14.376;2022-11-20T10:37:51;100735.13;;;2.89;84.75
65557;BME280;52200;53.490;14.376;2022-11-20T10:43:09;100728.44;;;2.87;84.81
65557;BME280;52200;53.490;14.376;2022-11-20T10:45:56;100732.63;;;2.86;84.03
65557;BME280;52200;53.490;14.376;2022-11-20T10:48:25;100728.28;;;2.57;85.31
65557;BME280;52200;53.490;14.376;2022-11-20T10:55:57;100726.53;;;2.47;85.45
65557;BME280;52200;53.490;14.376;2022-11-20T11:01:04;100723.22;;;2.51;85.63
65557;BME280;52200;53.490;14.376;2022-11-20T11:03:31;100725.78;;;2.61;86.01
65557;BME280;52200;53.490;14.376;2022-11-20T11:06:03;100725.56;;;2.30;86.76
65557;BME280;52200;53.490;14.376;2022-11-20T11:08:37;100711.66;;;2.73;85.11
65557;BME280;52200;53.490;14.376;2022-11-20T11:11:29;100715.69;;;2.50;84.70
65557;BME280;52200;53.490;14.376;2022-11-20T11:14:14;100715.81;;;2.71;85.57
65557;BME280;52200;53.490;14.376;2022-11-20T11:16:50;100716.72;;;2.81;84.68
65557;BME280;52200;53.490;14.376;2022-11-20T11:19:16;100710.94;;;3.01;84.10
65557;BME280;52200;53.490;14.376;2022-11-20T11:22:10;100723.34;;;2.71;85.92
65557;BME280;52200;53.490;14.376;2022-11-20T11:24:51;100708.47;;;3.07;85.36
65557;BME280;52200;53.490;14.376;2022-11-20T11:27:17;100718.50;;;3.07;84.38
65557;BME280;52200;53.490;14.376;2022-11-20T11:29:43;100710.75;;;2.62;85.13
65557;BME280;52200;53.490;14.376;2022-11-20T11:34:42;100713.38;;;2.82;85.00
65557;BME280;52200;53.490;14.376;2022-11-20T11:37:19;100708.22;;;2.61;84.96
65557;BME280;52200;53.490;14.376;2022-11-20T11:39:47;100699.94;;;2.74;84.79
65557;BME280;52200;53.490;14.376;2022-11-20T11:42:17;100708.34;;;2.87;85.04
65557;BME280;52200;53.490;14.376;2022-11-20T11:44:45;100703.13;;;2.48;84.70
65557;BME280;52200;53.490;14.376;2022-11-20T11:47:57;100709.19;;;2.80;84.38
65557;BME280;52200;53.490;14.376;2022-11-20T11:50:25;100704.00;;;2.50;85.16
65557;BME280;52200;53.490;14.376;2022-11-20T11:55:40;100707.44;;;2.66;84.95
65557;BME280;52200;53.490;14.376;2022-11-20T12:01:07;100702.06;;;2.12;86.53
65557;BME280;52200;53.490;14.376;2022-11-20T12:03:38;100702.19;;;2.29;86.41
65557;BME280;52200;53.490;14.376;2022-11-20T12:06:10;100697.00;;;2.06;86.80
65557;BME280;52200;53.490;14.376;2022-11-20T12:08:57;100697.91;;;2.19;86.54
65557;BME280;52200;53.490;14.376;2022-11-20T12:14:41;100686.41;;;2.47;86.35
65557;BME280;52200;53.490;14.376;2022-11-20T12:17:11;100689.59;;;2.21;86.78
65557;BME280;52200;53.490;14.376;2022-11-20T12:19:37;100685.34;;;2.13;86.83
65557;BME280;52200;53.490;14.376;2022-11-20T12:27:58;100683.13;;;2.54;85.53
65557;BME280;52200;53.490;14.376;2022-11-20T12:30:31;100673.88;;;2.44;85.72
65557;BME280;52200;53.490;14.376;2022-11-20T12:33:18;100682.06;;;2.17;87.32
65557;BME280;52200;53.490;14.376;2022-11-20T12:36:02;100672.63;;;1.83;87.78
65557;BME280;52200;53.490;14.376;2022-11-20T12:48:03;100674.22;;;1.78;86.93
65557;BME280;52200;53.490;14.376;2022-11-20T12:53:39;100667.75;;;2.05;87.46
65557;BME280;52200;53.490;14.376;2022-11-20T13:01:39;100662.59;;;1.85;87.49
65557;BME280;52200;53.490;14.376;2022-11-20T13:06:51;100664.03;;;1.59;88.86
65557;BME280;52200;53.490;14.376;2022-11-20T13:09:20;100659.28;;;1.90;88.48
65557;BME280;52200;53.490;14.376;2022-11-20T13:12:10;100665.78;;;1.68;89.06
65557;BME280;52200;53.490;14.376;2022-11-20T13:14:42;100660.59;;;1.48;89.86
65557;BME280;52200;53.490;14.376;2022-11-20T13:17:39;100663.28;;;1.67;89.71
65557;BME280;52200;53.490;14.376;2022-11-20T13:20:05;100659.19;;;1.75;89.94
65557;BME280;52200;53.490;14.376;2022-11-20T13:22:48;100653.94;;;1.50;90.50
65557;BME280;52200;53.490;14.376;2022-11-20T13:27:50;100646.47;;;1.53;89.95
65557;BME280;52200;53.490;14.376;2022-11-20T13:30:19;100648.19;;;1.57;90.30
65557;BME280;52200;53.490;14.376;2022-11-20T13:32:52;100640.94;;;1.90;89.17
65557;BME280;52200;53.490;14.376;2022-11-20T13:35:28;100642.38;;;1.61;89.86
65557;BME280;52200;53.490;14.376;2022-11-20T13:38:02;100642.97;;;1.37;90.59
65557;BME280;52200;53.490;14.376;2022-11-20T13:40:28;100647.25;;;1.46;90.62
65557;BME280;52200;53.490;14.376;2022-11-20T13:45:25;100643.38;;;1.82;89.40
65557;BME280;52200;53.490;14.376;2022-11-20T13:47:52;100639.91;;;1.68;90.00
65557;BME280;52200;53.490;14.376;2022-11-20T13:50:23;100634.19;;;1.84;89.46
65557;BME280;52200;53.490;14.376;2022-11-20T13:53:04;100636.78;;;1.97;89.34
65557;BME280;52200;53.490;14.376;2022-11-20T13:55:39;100631.69;;;1.80;88.25
65557;BME280;52200;53.490;14.376;2022-11-20T13:58:46;100635.81;;;1.76;88.80
65557;BME280;52200;53.490;14.376;2022-11-20T14:01:20;100632.41;;;1.69;89.04
65557;BME280;52200;53.490;14.376;2022-11-20T14:03:47;100626.78;;;1.97;88.68
65557;BME280;52200;53.490;14.376;2022-11-20T14:06:32;100627.59;;;1.92;88.29
65557;BME280;52200;53.490;14.376;2022-11-20T14:08:59;100626.81;;;2.01;87.62
65557;BME280;52200;53.490;14.376;2022-11-20T14:11:29;100623.97;;;1.59;89.11